Aima, India

54°F / 12°C
Rain
Humidity: 88%
Dew Point: 50°F / 10°C
Wind: East at 9 mph / 15 km/h
Pressure: 29.92 in / 1013 hPa (Falling)
Visibility: 2.5 miles / 4.0 kilometers
Clouds: Scattered Clouds (SCT) : 4000 ft / 1219 m
Mostly Cloudy (BKN) : 10000 ft / 3048 m
Yesterday's Maximum: 66°F / 19°C
Yesterday's Minimum: 50°F / 10°C approx.
Yesterday's Heating Degree Days: 7 approx.
UV: 0 out of 16
Sunrise:7:14 AM IST
Sunset:6:20 PM IST
Moon Rise:4:54 PM IST
Moon Set:6:10 AM IST
Moon Phase Waxing Gibbous
NOAA Weather Radio
No local feed.
METAR OPST 172000Z 09008KT 4000 RA SCT040 BKN100 12/10 Q1013 TEMPO 05015G30KT 2000 -TS FEW030CB RH88
As of: 1:00 AM PKT on February 18, 2019
Observed at: Sialkot Airport, India

View Station's History

Local Satellite

Current Satellite Forecast
Region Default Local
No Yes

View Full Screen WunderMap

Forecast

Current Satellite Forecast
Sunday
. High: 66° F. / 18° C.

. High: 53° F. / 11° C.

Features

Weather Apps

WunderRadio

Weather Underground Apps
Check out our wide variety of mobile and setup applications.

Weather Underground Applications

Top of Page

© Copyright 2019
The Weather Company, LLC